Kincheloe, MI (49784)

7:42 AM EDT on August 30, 2015 (GMT -0400)
Chippewa County International | | Change Station
CLOSE
Current Station
Airport
Location: Chippewa,
Elevation: 801 ft
Nearby Weather Stations

Elev 801 ft 46.25 °N, 84.48 °W | Updated 7 minutes ago

Overcast
Overcast
61 °F
Feels Like 61 °F
N
5
Wind Variable Wind from South

Today
High -- | Low -- °F
--% Chance of Precip.
Yesterday
High -- | Low -- °F
Precip. -- in
6:55 AM 8:20 PM
Full, 99% visible
Pressure 30.05 in
Visibility 1.2 miles
Clouds Overcast 200 ft
Dew Point 59 °F
Humidity 94%
Rainfall 0.00 in
Snow Depth Not available.
UV 0 out of 12
Pollen 10.10 out of 12
Air Quality Not available.
Flu Activity Not available.
METAR KCIU 301135Z AUTO 18004KT 1 1/4SM OVC002 16/15 A3005 RMK AO1
Pressure 30.05 in
Visibility 1.2 miles
Clouds Overcast 200 ft
Dew Point 59 °F
Humidity 94%
Rainfall 0.00 in
Snow Depth Not available.
UV 0 out of 12
Pollen 10.10 out of 12
Air Quality Not available.
Flu Activity Not available.
METAR KCIU 301135Z AUTO 18004KT 1 1/4SM OVC002 16/15 A3005 RMK AO1
Nowcast | as of 7:00 am EDT on August 30, 2015

At 8 am...partly cloudy. Areas of fog. Temperature 61. Light winds. At 10 am...partly cloudy. Temperature 63. South winds 6 mph. At 12 PM...mostly clear. Temperature 70. South winds 7 mph. At 2 PM...mostly clear. Temperature 74. Southwest winds 9 mph.

×

10-Day Weather Forecast

×

Almanac

Astronomy

Aug. 30, 2015 Rise Set
Actual Time
Civil Twilight
Nautical Twilight
Astronomical Twilight
Moon
Length of Visible Light
Length of Day
Tomorrow will be .
, % of the Moon is Illuminated

Today's Extremes

State Highs State Lows

Community

WunderPhotos

Upload Photos

1,850,930 photos uploaded!

WunderBlogs® & News

Nearby

Air Quality

  Air Quality AQ Index Pollutant
Not available.

Snow Depth

Station Depth Elevation

Earthquake Activity

City Distance Mag. Time & Date
Minimum magnitude displayed is 2.5.

Coastal Water Temperatures

Place Temperature

Stations

Nearby Weather Stations

Station Location Temp. Windchill Dew Point Humidity Wind Precip. Elev Updated Type